메인 페이지
METAR-TAF:

METAR-TAF

공항 :

호르헤 차베스 국제공항

리마, 페루

위도: 12-00S, 경도: 077-07W, 고도: 12m

현재 날씨관측

예보는 44분 전, 12:00시(UTC)에 발표되었습니다.
3kt
온도 15°C
습도 100%
기압 1017 hPa
시정: 3000m
고도 900ft 상공 흐림
약한이슬비, 박무

METAR: SPJC 221200Z 18003KT 3000 -DZ BR OVC009 15/15 Q1017 NOSIG RMK PPTRZ

시각: 07:44 (12:44 UTC)

예보

예보는 14분 전, 12:30시(UTC)에 발표되었습니다.
예보 대상 시간: 22일 12시부터 23일 12시까지 (UTC)
남서5kt
시정: 5000m
고도 1000ft 상공 흐림
이슬비, 박무
일시적
22일 12시부터 22일 15시까지 (UTC)
시정: 3000m
고도 800ft 상공 흐림
전환 중
22일 16시부터 22일 17시까지 (UTC)
시정: 8000m
고도 1500ft 상공 흐림
22일 1900시부터 (UTC)
7kt
시정 10km 이상
고도 2500ft 상공 흐림
전환 중
23일 02시부터 23일 04시까지 (UTC)
시정: 7000m
고도 1500ft 상공 흐림

TAF: SPJC 221230Z 2212/2312 23005KT 5000 DZ BR OVC010 TX18/2219Z TN15/2311Z TEMPO 2212/2215 3000 OVC008 BECMG 2216/2217 8000 NSW OVC015 FM221900 18007KT 9999 OVC025 BECMG 2302/2304 7000 OVC015

4,000개 이상의 공항 관측 자료 및 예보 (METAR 및 TAF 보고).

지도상에서 검색 가능한 기상관측소가 노란 점과 빨간 점으로 표시되어 있습니다.

기상관측소 명을 보려면 표시 위로 마우스를 이동하세요.

날씨 관측과 예보를 보려면 클릭하세요.

지도 변경 : 확대하려면 엑스 표시가 있는 녹색 버튼, 축소하려면 빼기 표시가 있는 녹색 버튼, 다음 페이지의 지도를 보려면 녹색 화살표를 클릭하세요.


METAR-TAF: